createdAt,value
2022-12-03T00:02:05.253Z,8.28
2022-12-03T00:04:33.799Z,8.30
2022-12-03T00:07:02.432Z,8.31
2022-12-03T00:09:30.840Z,8.35
2022-12-03T00:11:59.457Z,8.38
2022-12-03T00:14:30.418Z,8.40
2022-12-03T00:16:59.018Z,8.43
2022-12-03T00:19:27.668Z,8.44
2022-12-03T00:21:56.254Z,8.48
2022-12-03T00:24:25.186Z,8.49
2022-12-03T00:26:54.072Z,8.48
2022-12-03T00:29:30.237Z,8.48
2022-12-03T00:32:01.017Z,8.46
2022-12-03T00:34:30.298Z,8.44
2022-12-03T00:36:58.975Z,8.46
2022-12-03T00:39:27.768Z,8.43
2022-12-03T00:41:56.457Z,8.42
2022-12-03T00:44:24.959Z,8.40
2022-12-03T00:46:55.069Z,8.40
2022-12-03T00:49:25.459Z,8.41
2022-12-03T00:51:54.261Z,8.41
2022-12-03T00:54:28.339Z,8.40
2022-12-03T00:57:01.090Z,8.41
2022-12-03T00:59:29.772Z,8.40
2022-12-03T01:01:59.975Z,8.42
2022-12-03T01:04:28.864Z,8.40
2022-12-03T01:06:57.483Z,8.39
2022-12-03T01:09:27.184Z,8.39
2022-12-03T01:12:00.178Z,8.39
2022-12-03T01:14:35.632Z,8.39
2022-12-03T01:17:25.938Z,8.38
2022-12-03T01:19:54.710Z,8.39
2022-12-03T01:22:23.269Z,8.38
2022-12-03T01:24:52.127Z,8.39
2022-12-03T01:27:22.054Z,8.37
2022-12-03T01:29:52.716Z,8.36
2022-12-03T01:32:21.665Z,8.36
2022-12-03T01:34:52.559Z,8.35
2022-12-03T01:37:23.691Z,8.36
2022-12-03T01:39:52.925Z,8.35
2022-12-03T01:42:25.600Z,8.34
2022-12-03T01:44:57.623Z,8.34
2022-12-03T01:47:31.603Z,8.31
2022-12-03T01:50:05.468Z,8.31
2022-12-03T01:52:38.811Z,8.31
2022-12-03T01:55:15.358Z,8.32
2022-12-03T01:57:49.313Z,8.30
2022-12-03T02:00:21.638Z,8.30
2022-12-03T02:02:55.466Z,8.30
2022-12-03T02:05:28.844Z,8.26
2022-12-03T02:07:59.612Z,8.28
2022-12-03T02:10:32.639Z,8.28
2022-12-03T02:13:05.674Z,8.30
2022-12-03T02:15:34.836Z,8.26
2022-12-03T02:18:05.071Z,8.24
2022-12-03T02:20:38.056Z,8.20
2022-12-03T02:23:13.678Z,8.20
2022-12-03T02:25:43.907Z,8.19
2022-12-03T02:28:12.717Z,8.19
2022-12-03T02:30:41.296Z,8.15
2022-12-03T02:33:09.725Z,8.15
2022-12-03T02:35:40.058Z,8.15
2022-12-03T02:38:14.581Z,8.14
2022-12-03T02:40:47.336Z,8.12
2022-12-03T02:43:17.039Z,8.14
2022-12-03T02:45:48.397Z,8.13
2022-12-03T02:48:19.486Z,8.09
2022-12-03T02:50:51.654Z,8.08
2022-12-03T02:53:25.123Z,8.07
2022-12-03T02:55:57.824Z,8.05
2022-12-03T02:58:29.714Z,8.04
2022-12-03T03:01:00.084Z,8.01
2022-12-03T03:03:31.066Z,7.99
2022-12-03T03:06:02.657Z,7.96
2022-12-03T03:08:32.906Z,7.92
2022-12-03T03:11:04.328Z,7.90
2022-12-03T03:13:35.754Z,7.84
2022-12-03T03:16:05.573Z,7.78
2022-12-03T03:18:34.939Z,7.71
2022-12-03T03:21:03.994Z,7.66
2022-12-03T03:23:32.449Z,7.62
2022-12-03T03:26:06.136Z,7.56
2022-12-03T03:28:39.446Z,7.49
2022-12-03T03:31:10.517Z,7.43
2022-12-03T03:33:40.835Z,7.38
2022-12-03T03:36:12.656Z,7.34
2022-12-03T03:38:41.540Z,7.30
2022-12-03T03:41:13.607Z,7.24
2022-12-03T03:43:45.090Z,7.19
2022-12-03T03:46:16.767Z,7.17
2022-12-03T03:48:45.588Z,7.16
2022-12-03T03:51:14.794Z,7.12
2022-12-03T03:53:48.224Z,7.07
2022-12-03T03:56:23.264Z,7.03
2022-12-03T03:58:51.806Z,6.98
2022-12-03T04:01:20.595Z,6.95
2022-12-03T04:03:49.429Z,6.92
2022-12-03T04:06:17.941Z,6.90
2022-12-03T04:08:46.852Z,6.89
2022-12-03T04:11:33.728Z,6.87
2022-12-03T04:14:04.111Z,6.84
2022-12-03T04:16:32.869Z,6.84
2022-12-03T04:19:01.472Z,6.83
2022-12-03T04:21:47.537Z,6.82
2022-12-03T04:24:16.486Z,6.81
2022-12-03T04:27:02.537Z,6.77
2022-12-03T04:29:32.566Z,6.71
2022-12-03T04:32:18.255Z,6.69
2022-12-03T04:35:04.669Z,6.68
2022-12-03T04:37:34.245Z,6.64
2022-12-03T04:40:23.017Z,6.62
2022-12-03T04:42:51.463Z,6.65
2022-12-03T04:45:22.555Z,6.70
2022-12-03T04:47:51.408Z,6.76
2022-12-03T04:50:19.917Z,6.84
2022-12-03T04:52:49.753Z,6.90
2022-12-03T04:55:19.366Z,6.94
2022-12-03T04:57:48.974Z,7.04
2022-12-03T05:00:18.665Z,7.07
2022-12-03T05:02:48.777Z,7.09
2022-12-03T05:05:18.216Z,7.14
2022-12-03T05:07:46.859Z,7.18
2022-12-03T05:10:15.786Z,7.20
2022-12-03T05:12:44.408Z,7.22
2022-12-03T05:15:13.294Z,7.23
2022-12-03T05:17:41.798Z,7.24
2022-12-03T05:20:30.554Z,7.23
2022-12-03T05:22:59.134Z,7.25
2022-12-03T05:25:27.863Z,7.27
2022-12-03T05:27:56.340Z,7.26
2022-12-03T05:30:25.140Z,7.28
2022-12-03T05:32:54.935Z,7.28
2022-12-03T05:35:25.881Z,7.29
2022-12-03T05:37:54.558Z,7.30
2022-12-03T05:40:23.150Z,7.31
2022-12-03T05:42:57.388Z,7.31
2022-12-03T05:45:28.357Z,7.32
2022-12-03T05:47:58.554Z,7.34
2022-12-03T05:50:31.027Z,7.33
2022-12-03T05:53:00.629Z,7.34
2022-12-03T05:55:30.570Z,7.34
2022-12-03T05:57:59.420Z,7.36
2022-12-03T06:00:31.006Z,7.36
2022-12-03T06:03:00.501Z,7.34
2022-12-03T06:05:31.097Z,7.36
2022-12-03T06:08:00.307Z,7.39
2022-12-03T06:10:29.686Z,7.42
2022-12-03T06:12:58.618Z,7.44
2022-12-03T06:15:27.170Z,7.42
2022-12-03T06:17:55.754Z,7.43
2022-12-03T06:20:24.371Z,7.44
2022-12-03T06:22:55.554Z,7.46
2022-12-03T06:25:24.156Z,7.47
2022-12-03T06:27:52.936Z,7.46
2022-12-03T06:30:22.466Z,7.49
2022-12-03T06:32:51.965Z,7.48
2022-12-03T06:35:22.412Z,7.46
2022-12-03T06:37:50.816Z,7.48
2022-12-03T06:40:21.956Z,7.54
2022-12-03T06:42:50.291Z,7.47
2022-12-03T06:45:18.798Z,7.47
2022-12-03T06:47:47.431Z,7.48
2022-12-03T06:50:16.024Z,7.48
2022-12-03T06:52:44.553Z,7.47
2022-12-03T06:55:13.336Z,7.48
2022-12-03T06:57:43.345Z,7.45
2022-12-03T07:00:13.069Z,7.46
2022-12-03T07:02:41.599Z,7.46
2022-12-03T07:05:10.314Z,7.46
2022-12-03T07:07:39.982Z,7.45
2022-12-03T07:10:10.115Z,7.46
2022-12-03T07:12:38.690Z,7.47
2022-12-03T07:15:09.777Z,7.44
2022-12-03T07:17:39.363Z,7.45
2022-12-03T07:20:09.469Z,7.44
2022-12-03T07:22:38.191Z,7.44
2022-12-03T07:25:08.409Z,7.44
2022-12-03T07:27:37.350Z,7.45
2022-12-03T07:30:06.822Z,7.46
2022-12-03T07:32:36.927Z,7.45
2022-12-03T07:35:07.879Z,7.47
2022-12-03T07:37:37.958Z,7.49
2022-12-03T07:40:07.898Z,7.47
2022-12-03T07:42:37.779Z,7.52
2022-12-03T07:45:07.400Z,7.50
2022-12-03T07:47:37.796Z,7.47
2022-12-03T07:50:07.855Z,7.47
2022-12-03T07:52:36.994Z,7.47
2022-12-03T07:55:06.188Z,7.46
2022-12-03T07:57:34.505Z,7.44
2022-12-03T08:00:03.200Z,7.44
2022-12-03T08:02:31.861Z,7.46
2022-12-03T08:05:01.949Z,7.44
2022-12-03T08:07:30.497Z,7.44
2022-12-03T08:09:59.288Z,7.46
2022-12-03T08:12:40.403Z,7.48
2022-12-03T08:15:15.627Z,7.50
2022-12-03T08:17:46.069Z,7.55
2022-12-03T08:20:55.634Z,7.50
2022-12-03T08:23:26.427Z,7.51
2022-12-03T08:25:55.299Z,7.51
2022-12-03T08:28:26.153Z,7.52
2022-12-03T08:31:02.729Z,7.50
2022-12-03T08:33:35.650Z,7.50
2022-12-03T08:36:14.864Z,7.51
2022-12-03T08:38:46.644Z,7.50
2022-12-03T08:41:37.656Z,7.50
2022-12-03T08:44:19.438Z,7.51
2022-12-03T08:46:55.545Z,7.50
2022-12-03T08:49:24.330Z,7.51
2022-12-03T08:52:00.960Z,7.52
2022-12-03T08:54:29.874Z,7.52
2022-12-03T08:56:58.571Z,7.53
2022-12-03T08:59:31.452Z,7.56
2022-12-03T09:02:01.192Z,7.53
2022-12-03T09:04:38.099Z,7.53
2022-12-03T09:07:08.165Z,7.53
2022-12-03T09:09:36.609Z,7.53
2022-12-03T09:12:05.210Z,7.53
2022-12-03T09:14:33.877Z,7.54
2022-12-03T09:17:02.839Z,7.56
2022-12-03T09:19:32.834Z,7.57
2022-12-03T09:22:01.485Z,7.61
2022-12-03T09:24:31.572Z,7.60
2022-12-03T09:27:00.368Z,7.61
2022-12-03T09:29:28.941Z,7.61
2022-12-03T09:31:57.455Z,7.62
2022-12-03T09:34:25.811Z,7.61
2022-12-03T09:36:54.194Z,7.61
2022-12-03T09:39:22.807Z,7.62
2022-12-03T09:41:53.113Z,7.55
2022-12-03T09:44:21.932Z,7.51
2022-12-03T09:46:51.325Z,7.54
2022-12-03T09:49:21.356Z,7.81
2022-12-03T09:51:49.910Z,7.78
2022-12-03T09:54:25.397Z,7.77
2022-12-03T09:56:56.500Z,7.73
2022-12-03T09:59:28.999Z,7.72
2022-12-03T10:01:57.873Z,7.64
2022-12-03T10:04:27.081Z,7.53
2022-12-03T10:06:56.603Z,7.48
2022-12-03T10:09:27.904Z,7.42
2022-12-03T10:11:58.944Z,7.34
2022-12-03T10:14:28.654Z,7.36
2022-12-03T10:16:57.867Z,7.27
2022-12-03T10:19:29.155Z,7.25
2022-12-03T10:21:57.935Z,7.25
2022-12-03T10:24:29.240Z,7.33
2022-12-03T10:27:01.213Z,7.39
2022-12-03T10:29:34.187Z,7.33
2022-12-03T10:32:05.455Z,7.26
2022-12-03T10:34:36.093Z,7.34
2022-12-03T10:37:14.120Z,7.45
2022-12-03T10:40:05.898Z,7.36
2022-12-03T10:42:38.116Z,7.35
2022-12-03T10:45:15.478Z,7.22
2022-12-03T10:47:45.423Z,7.21
2022-12-03T10:50:20.822Z,7.23
2022-12-03T10:52:49.470Z,7.14
2022-12-03T10:55:18.585Z,7.21
2022-12-03T10:57:48.483Z,7.53
2022-12-03T11:00:19.379Z,7.77
2022-12-03T11:02:54.945Z,7.75
2022-12-03T11:05:28.787Z,7.75
2022-12-03T11:07:58.767Z,7.77
2022-12-03T11:10:32.848Z,7.75
2022-12-03T11:13:43.901Z,7.76
2022-12-03T11:16:13.418Z,7.76
2022-12-03T11:19:02.641Z,7.78
2022-12-03T11:21:32.081Z,7.76
2022-12-03T11:24:06.001Z,7.75
2022-12-03T11:27:11.377Z,7.79
2022-12-03T11:29:59.322Z,7.88
2022-12-03T11:33:10.292Z,7.90
2022-12-03T11:36:11.557Z,7.96
2022-12-03T11:38:59.407Z,7.96
2022-12-03T11:41:32.249Z,7.98
2022-12-03T11:44:17.245Z,8.03
2022-12-03T11:46:48.733Z,7.95
2022-12-03T11:49:39.575Z,7.92
2022-12-03T11:52:31.021Z,7.97
2022-12-03T11:55:06.055Z,7.93
2022-12-03T11:57:38.863Z,8.03
2022-12-03T12:00:17.306Z,8.13
2022-12-03T12:02:47.662Z,8.32
2022-12-03T12:05:22.278Z,8.36
2022-12-03T12:07:51.066Z,8.27
2022-12-03T12:10:43.517Z,8.42
2022-12-03T12:13:55.020Z,8.40
2022-12-03T12:16:51.002Z,8.28
2022-12-03T12:19:36.635Z,8.56
2022-12-03T12:22:20.218Z,8.68
2022-12-03T12:24:53.383Z,8.27
2022-12-03T12:27:24.037Z,8.07
2022-12-03T12:29:56.221Z,8.15
2022-12-03T12:32:28.412Z,8.35
2022-12-03T12:35:04.523Z,8.98
2022-12-03T12:37:37.735Z,9.04
2022-12-03T12:40:15.767Z,8.77
2022-12-03T12:42:51.299Z,8.80
2022-12-03T12:45:22.418Z,8.58
2022-12-03T12:48:07.474Z,8.45
2022-12-03T12:50:39.473Z,8.50
2022-12-03T12:53:14.336Z,8.41
2022-12-03T12:55:43.879Z,8.36
2022-12-03T12:58:17.418Z,8.38
2022-12-03T13:00:50.228Z,8.66
2022-12-03T13:03:20.591Z,8.51
2022-12-03T13:05:52.904Z,8.52
2022-12-03T13:08:29.197Z,8.51
2022-12-03T13:10:59.234Z,8.34
2022-12-03T13:13:34.061Z,8.26
2022-12-03T13:16:13.515Z,8.19
2022-12-03T13:18:47.425Z,8.21
2022-12-03T13:21:24.062Z,8.24
2022-12-03T13:23:55.627Z,8.31
2022-12-03T13:26:37.720Z,8.40
2022-12-03T13:29:16.736Z,8.63
2022-12-03T13:31:53.789Z,8.60
2022-12-03T13:34:25.564Z,8.45
2022-12-03T13:36:58.571Z,8.16
2022-12-03T13:39:35.318Z,7.93
2022-12-03T13:42:37.318Z,7.88
2022-12-03T13:45:28.958Z,7.80
2022-12-03T13:47:59.074Z,7.75
2022-12-03T13:50:35.303Z,7.79
2022-12-03T13:53:16.132Z,7.90
2022-12-03T13:55:47.316Z,8.09
2022-12-03T13:58:15.861Z,8.39
2022-12-03T14:00:49.047Z,8.79
2022-12-03T14:03:17.816Z,8.92
2022-12-03T14:05:46.111Z,9.00
2022-12-03T14:08:16.406Z,9.08
2022-12-03T14:10:45.111Z,9.24
2022-12-03T14:13:13.606Z,9.17
2022-12-03T14:15:42.261Z,9.37
2022-12-03T14:18:10.783Z,9.59
2022-12-03T14:20:40.031Z,9.70
2022-12-03T14:23:08.374Z,9.73
2022-12-03T14:25:38.238Z,9.24
2022-12-03T14:28:09.039Z,9.01
2022-12-03T14:30:37.776Z,8.97
2022-12-03T14:33:06.465Z,8.90
2022-12-03T14:35:35.652Z,8.62
2022-12-03T14:38:04.302Z,8.48
2022-12-03T14:40:33.528Z,8.34
2022-12-03T14:43:03.559Z,8.34
2022-12-03T14:45:32.333Z,8.11
2022-12-03T14:48:01.162Z,7.94
2022-12-03T14:50:29.783Z,7.89
2022-12-03T14:52:58.631Z,7.78
2022-12-03T14:55:27.359Z,7.74
2022-12-03T14:57:56.150Z,7.67
2022-12-03T15:00:26.300Z,7.70
2022-12-03T15:02:54.902Z,7.74
2022-12-03T15:05:28.611Z,7.71
2022-12-03T15:07:59.209Z,7.64
2022-12-03T15:10:28.196Z,7.68
2022-12-03T15:12:56.796Z,7.69
2022-12-03T15:15:26.658Z,7.68
2022-12-03T15:17:55.187Z,7.68
2022-12-03T15:20:23.960Z,7.66
2022-12-03T15:22:53.288Z,7.66
2022-12-03T15:25:25.711Z,7.66
2022-12-03T15:27:54.051Z,7.63
2022-12-03T15:30:22.581Z,7.53
2022-12-03T15:32:52.556Z,7.52
2022-12-03T15:35:21.147Z,7.52
2022-12-03T15:37:49.720Z,7.49
2022-12-03T15:40:18.417Z,7.27
2022-12-03T15:42:47.038Z,7.16
2022-12-03T15:45:15.733Z,7.04
2022-12-03T15:47:45.504Z,6.92
2022-12-03T15:50:16.731Z,6.83
2022-12-03T15:52:45.477Z,6.89
2022-12-03T15:55:14.179Z,6.98
2022-12-03T15:57:42.645Z,6.96
2022-12-03T16:00:13.517Z,6.95
2022-12-03T16:02:45.144Z,6.94
2022-12-03T16:05:19.504Z,6.92
2022-12-03T16:07:48.137Z,6.91
2022-12-03T16:10:17.981Z,6.87
2022-12-03T16:12:48.968Z,6.84
2022-12-03T16:15:23.679Z,6.85
2022-12-03T16:17:55.845Z,6.84
2022-12-03T16:20:25.901Z,6.79
2022-12-03T16:22:55.674Z,6.78
2022-12-03T16:25:26.378Z,6.80
2022-12-03T16:27:55.060Z,6.83
2022-12-03T16:30:24.900Z,6.84
2022-12-03T16:32:54.476Z,6.82
2022-12-03T16:35:23.048Z,6.85
2022-12-03T16:37:53.063Z,6.82
2022-12-03T16:40:21.641Z,6.81
2022-12-03T16:42:50.038Z,6.85
2022-12-03T16:45:33.968Z,6.83
2022-12-03T16:48:03.864Z,6.82
2022-12-03T16:50:32.280Z,6.80
2022-12-03T16:53:02.488Z,6.79
2022-12-03T16:55:31.068Z,6.76
2022-12-03T16:57:59.449Z,6.73
2022-12-03T17:00:28.482Z,6.73
2022-12-03T17:02:58.224Z,6.73
2022-12-03T17:05:27.011Z,6.75
2022-12-03T17:07:55.791Z,6.77
2022-12-03T17:10:25.883Z,6.81
2022-12-03T17:13:09.229Z,6.83
2022-12-03T17:15:40.168Z,6.81
2022-12-03T17:18:09.784Z,6.80
2022-12-03T17:20:41.746Z,6.78
2022-12-03T17:23:12.098Z,6.78
2022-12-03T17:25:43.502Z,6.80
2022-12-03T17:28:13.268Z,6.77
2022-12-03T17:30:41.956Z,6.73
2022-12-03T17:33:12.286Z,6.69
2022-12-03T17:35:41.764Z,6.73
2022-12-03T17:38:11.596Z,6.70
2022-12-03T17:40:40.266Z,6.68
2022-12-03T17:43:10.558Z,6.69
2022-12-03T17:45:38.956Z,6.68
2022-12-03T17:48:08.474Z,6.68
2022-12-03T17:50:39.107Z,6.64
2022-12-03T17:53:10.779Z,6.63
2022-12-03T17:55:44.605Z,6.59
2022-12-03T17:58:16.666Z,6.50
2022-12-03T18:00:45.691Z,6.43
2022-12-03T18:03:14.820Z,6.46
2022-12-03T18:05:43.462Z,6.40
2022-12-03T18:08:11.974Z,6.33
2022-12-03T18:10:40.557Z,6.32
2022-12-03T18:13:10.121Z,6.31
2022-12-03T18:15:40.076Z,6.34
2022-12-03T18:18:08.641Z,6.38
2022-12-03T18:20:37.690Z,6.39
2022-12-03T18:23:07.140Z,6.41
2022-12-03T18:25:37.274Z,6.43
2022-12-03T18:28:06.237Z,6.40
2022-12-03T18:30:36.015Z,6.40
2022-12-03T18:33:09.009Z,6.40
2022-12-03T18:35:37.810Z,6.41
2022-12-03T18:38:06.642Z,6.41
2022-12-03T18:40:35.546Z,6.39
2022-12-03T18:43:04.244Z,6.34
2022-12-03T18:45:35.491Z,6.27
2022-12-03T18:48:04.131Z,6.21
2022-12-03T18:50:34.466Z,6.23
2022-12-03T18:53:03.421Z,6.22
2022-12-03T18:55:36.095Z,6.24
2022-12-03T18:58:06.237Z,6.28
2022-12-03T19:00:36.101Z,6.31
2022-12-03T19:03:05.210Z,6.36
2022-12-03T19:05:38.086Z,6.36
2022-12-03T19:08:15.156Z,6.28
2022-12-03T19:10:47.213Z,6.23
2022-12-03T19:13:15.782Z,6.17
2022-12-03T19:15:45.961Z,6.18
2022-12-03T19:18:15.789Z,6.15
2022-12-03T19:20:48.480Z,6.19
2022-12-03T19:23:18.111Z,6.21
2022-12-03T19:25:57.852Z,6.18
2022-12-03T19:28:27.274Z,6.17
2022-12-03T19:31:00.871Z,6.18
2022-12-03T19:33:30.126Z,6.22
2022-12-03T19:36:02.186Z,6.24
2022-12-03T19:38:31.697Z,6.25
2022-12-03T19:41:02.006Z,6.22
2022-12-03T19:43:32.188Z,6.19
2022-12-03T19:46:05.215Z,6.18
2022-12-03T19:48:34.768Z,6.14
2022-12-03T19:51:26.583Z,6.16
2022-12-03T19:53:56.438Z,6.16
2022-12-03T19:56:25.976Z,6.16
2022-12-03T19:58:56.529Z,6.19
2022-12-03T20:01:27.977Z,6.21
2022-12-03T20:03:59.098Z,6.19
2022-12-03T20:06:31.055Z,6.19
2022-12-03T20:09:02.201Z,6.13
2022-12-03T20:11:33.111Z,6.15
2022-12-03T20:14:04.374Z,6.06
2022-12-03T20:16:33.298Z,6.09
2022-12-03T20:19:08.944Z,6.04
2022-12-03T20:21:40.571Z,6.05
2022-12-03T20:24:12.300Z,6.03
2022-12-03T20:26:42.336Z,6.02
2022-12-03T20:29:11.017Z,6.03
2022-12-03T20:31:41.180Z,6.02
2022-12-03T20:34:11.514Z,5.97
2022-12-03T20:36:43.299Z,5.98
2022-12-03T20:39:12.622Z,5.93
2022-12-03T20:41:41.325Z,5.90
2022-12-03T20:44:10.201Z,5.86
2022-12-03T20:46:38.902Z,5.91
2022-12-03T20:49:07.569Z,5.94
2022-12-03T20:51:36.385Z,5.94
2022-12-03T20:54:06.652Z,5.93
2022-12-03T20:56:39.586Z,5.94
2022-12-03T20:59:12.346Z,5.94
2022-12-03T21:01:43.006Z,5.93
2022-12-03T21:04:16.630Z,5.94
2022-12-03T21:06:52.541Z,5.94
2022-12-03T21:09:24.703Z,5.95
2022-12-03T21:11:53.272Z,5.96
2022-12-03T21:14:22.180Z,6.00
2022-12-03T21:17:08.776Z,5.94
2022-12-03T21:19:38.394Z,5.89
2022-12-03T21:22:07.843Z,5.88
2022-12-03T21:24:43.209Z,5.88
2022-12-03T21:27:14.584Z,5.85
2022-12-03T21:29:49.948Z,5.83
2022-12-03T21:32:18.613Z,5.85
2022-12-03T21:34:47.450Z,5.82
2022-12-03T21:37:17.457Z,5.82
2022-12-03T21:39:49.027Z,5.85
2022-12-03T21:42:34.275Z,5.86
2022-12-03T21:45:07.441Z,5.88
2022-12-03T21:47:37.491Z,5.88
2022-12-03T21:50:09.599Z,5.88
2022-12-03T21:52:38.230Z,5.85
2022-12-03T21:55:08.995Z,5.82
2022-12-03T21:57:37.955Z,5.83
2022-12-03T22:00:09.550Z,5.83
2022-12-03T22:02:40.110Z,5.79
2022-12-03T22:05:10.909Z,5.79
2022-12-03T22:07:40.602Z,5.82
2022-12-03T22:10:13.663Z,5.83
2022-12-03T22:12:42.479Z,5.79
2022-12-03T22:15:18.482Z,5.75
2022-12-03T22:17:51.085Z,5.70
2022-12-03T22:20:19.889Z,5.65
2022-12-03T22:22:48.483Z,5.63
2022-12-03T22:25:19.013Z,5.60
2022-12-03T22:27:50.547Z,5.58
2022-12-03T22:30:19.059Z,5.63
2022-12-03T22:32:50.666Z,5.64
2022-12-03T22:35:19.239Z,5.65
2022-12-03T22:37:48.980Z,5.61
2022-12-03T22:40:19.356Z,5.59
2022-12-03T22:42:51.803Z,5.56
2022-12-03T22:45:20.461Z,5.55
2022-12-03T22:47:49.100Z,5.52
2022-12-03T22:50:18.111Z,5.49
2022-12-03T22:52:46.828Z,5.49
2022-12-03T22:55:15.808Z,5.52
2022-12-03T22:57:45.911Z,5.56
2022-12-03T23:00:18.445Z,5.57
2022-12-03T23:02:47.242Z,5.51
2022-12-03T23:05:16.328Z,5.50
2022-12-03T23:07:45.062Z,5.51
2022-12-03T23:10:14.680Z,5.50
2022-12-03T23:12:45.969Z,5.48
2022-12-03T23:15:14.510Z,5.46
2022-12-03T23:17:45.040Z,5.41
2022-12-03T23:20:14.633Z,5.33
2022-12-03T23:22:44.871Z,5.29
2022-12-03T23:25:14.535Z,5.26
2022-12-03T23:27:43.267Z,5.27
2022-12-03T23:30:16.234Z,5.28
2022-12-03T23:32:45.317Z,5.29
2022-12-03T23:35:15.076Z,5.28
2022-12-03T23:37:45.368Z,5.31
2022-12-03T23:40:14.991Z,5.32
2022-12-03T23:42:46.326Z,5.33
2022-12-03T23:45:16.662Z,5.31
2022-12-03T23:47:46.221Z,5.33
2022-12-03T23:50:14.941Z,5.33
2022-12-03T23:52:44.707Z,5.34
2022-12-03T23:55:14.430Z,5.33
2022-12-03T23:57:44.328Z,5.37
